sensor_id;sensor_type;location;lat;lon;timestamp;pressure;altitude;pressure_sealevel;temperature
15544;BMP180;7873;52.230;12.856;2022-11-23T00:01:18;99506.59;;;25.50
15544;BMP180;7873;52.230;12.856;2022-11-23T00:03:47;99505.78;;;25.50
15544;BMP180;7873;52.230;12.856;2022-11-23T00:06:15;99504.38;;;25.47
15544;BMP180;7873;52.230;12.856;2022-11-23T00:08:42;99521.19;;;25.43
15544;BMP180;7873;52.230;12.856;2022-11-23T00:11:09;99500.88;;;25.40
15544;BMP180;7873;52.230;12.856;2022-11-23T00:13:36;99500.88;;;25.40
15544;BMP180;7873;52.230;12.856;2022-11-23T00:16:06;99501.72;;;25.41
15544;BMP180;7873;52.230;12.856;2022-11-23T00:18:33;99508.97;;;25.40
15544;BMP180;7873;52.230;12.856;2022-11-23T00:21:04;99514.81;;;25.37
15544;BMP180;7873;52.230;12.856;2022-11-23T00:23:31;99512.34;;;25.36
15544;BMP180;7873;52.230;12.856;2022-11-23T00:25:58;99507.16;;;25.34
15544;BMP180;7873;52.230;12.856;2022-11-23T00:28:24;99511.34;;;25.30
15544;BMP180;7873;52.230;12.856;2022-11-23T00:30:51;99513.06;;;25.25
15544;BMP180;7873;52.230;12.856;2022-11-23T00:33:19;99511.03;;;25.20
15544;BMP180;7873;52.230;12.856;2022-11-23T00:35:46;99502.97;;;25.20
15544;BMP180;7873;52.230;12.856;2022-11-23T00:38:13;99508.72;;;25.17
15544;BMP180;7873;52.230;12.856;2022-11-23T00:40:40;99507.31;;;25.15
15544;BMP180;7873;52.230;12.856;2022-11-23T00:43:06;99512.31;;;25.11
15544;BMP180;7873;52.230;12.856;2022-11-23T00:45:33;99511.69;;;25.09
15544;BMP180;7873;52.230;12.856;2022-11-23T00:48:00;99504.28;;;25.05
15544;BMP180;7873;52.230;12.856;2022-11-23T00:50:28;99512.34;;;25.05
15544;BMP180;7873;52.230;12.856;2022-11-23T00:52:55;99516.53;;;25.01
15544;BMP180;7873;52.230;12.856;2022-11-23T00:55:21;99522.16;;;24.99
15544;BMP180;7873;52.230;12.856;2022-11-23T00:57:48;99526.09;;;24.97
15544;BMP180;7873;52.230;12.856;2022-11-23T01:00:16;99519.06;;;24.96
15544;BMP180;7873;52.230;12.856;2022-11-23T01:02:42;99521.56;;;24.97
15544;BMP180;7873;52.230;12.856;2022-11-23T01:05:09;99516.78;;;24.99
15544;BMP180;7873;52.230;12.856;2022-11-23T01:07:37;99523.19;;;24.98
15544;BMP180;7873;52.230;12.856;2022-11-23T01:10:04;99530.28;;;24.93
15544;BMP180;7873;52.230;12.856;2022-11-23T01:12:32;99516.19;;;24.91
15544;BMP180;7873;52.230;12.856;2022-11-23T01:14:59;99522.22;;;24.86
15544;BMP180;7873;52.230;12.856;2022-11-23T01:17:26;99519.78;;;24.85
15544;BMP180;7873;52.230;12.856;2022-11-23T01:19:53;99517.09;;;24.85
15544;BMP180;7873;52.230;12.856;2022-11-23T01:22:19;99520.59;;;24.85
15544;BMP180;7873;52.230;12.856;2022-11-23T01:24:48;99519.13;;;24.83
15544;BMP180;7873;52.230;12.856;2022-11-23T01:27:14;99525.56;;;24.82
15544;BMP180;7873;52.230;12.856;2022-11-23T01:29:41;99519.81;;;24.78
15544;BMP180;7873;52.230;12.856;2022-11-23T01:32:08;99522.50;;;24.78
15544;BMP180;7873;52.230;12.856;2022-11-23T01:34:34;99526.25;;;24.77
15544;BMP180;7873;52.230;12.856;2022-11-23T01:37:01;99526.25;;;24.77
15544;BMP180;7873;52.230;12.856;2022-11-23T01:39:28;99532.66;;;24.76
15544;BMP180;7873;52.230;12.856;2022-11-23T01:41:56;99524.34;;;24.78
15544;BMP180;7873;52.230;12.856;2022-11-23T01:44:27;99528.69;;;24.79
15544;BMP180;7873;52.230;12.856;2022-11-23T01:46:56;99528.09;;;24.77
15544;BMP180;7873;52.230;12.856;2022-11-23T01:49:23;99525.22;;;24.72
15544;BMP180;7873;52.230;12.856;2022-11-23T01:51:53;99527.53;;;24.68
15544;BMP180;7873;52.230;12.856;2022-11-23T01:54:23;99521.16;;;24.63
15544;BMP180;7873;52.230;12.856;2022-11-23T01:56:56;99528.63;;;24.61
15544;BMP180;7873;52.230;12.856;2022-11-23T01:59:25;99525.28;;;24.59
15544;BMP180;7873;52.230;12.856;2022-11-23T02:01:52;99531.13;;;24.56
15544;BMP180;7873;52.230;12.856;2022-11-23T02:04:23;99522.22;;;24.55
15544;BMP180;7873;52.230;12.856;2022-11-23T02:06:52;99533.59;;;24.57
15544;BMP180;7873;52.230;12.856;2022-11-23T02:09:21;99542.28;;;24.59
15544;BMP180;7873;52.230;12.856;2022-11-23T02:11:48;99530.75;;;24.52
15544;BMP180;7873;52.230;12.856;2022-11-23T02:14:16;99530.09;;;24.50
15544;BMP180;7873;52.230;12.856;2022-11-23T02:16:43;99530.75;;;24.52
15544;BMP180;7873;52.230;12.856;2022-11-23T02:19:17;99527.00;;;24.53
15544;BMP180;7873;52.230;12.856;2022-11-23T02:21:48;99536.50;;;24.56
15544;BMP180;7873;52.230;12.856;2022-11-23T02:24:22;99527.63;;;24.55
15544;BMP180;7873;52.230;12.856;2022-11-23T02:26:52;99525.72;;;24.56
15544;BMP180;7873;52.230;12.856;2022-11-23T02:29:21;99522.22;;;24.55
15544;BMP180;7873;52.230;12.856;2022-11-23T02:31:48;99531.13;;;24.56
15544;BMP180;7873;52.230;12.856;2022-11-23T02:34:16;99522.44;;;24.54
15544;BMP180;7873;52.230;12.856;2022-11-23T02:36:44;99523.03;;;24.56
15544;BMP180;7873;52.230;12.856;2022-11-23T02:39:14;99515.19;;;24.54
15544;BMP180;7873;52.230;12.856;2022-11-23T02:41:42;99520.59;;;24.54
15544;BMP180;7873;52.230;12.856;2022-11-23T02:44:18;99521.63;;;24.53
15544;BMP180;7873;52.230;12.856;2022-11-23T02:46:46;99516.66;;;24.50
15544;BMP180;7873;52.230;12.856;2022-11-23T02:49:13;99522.66;;;24.46
15544;BMP180;7873;52.230;12.856;2022-11-23T02:51:40;99527.63;;;24.42
15544;BMP180;7873;52.230;12.856;2022-11-23T02:54:06;99523.53;;;24.40
15544;BMP180;7873;52.230;12.856;2022-11-23T02:56:33;99528.69;;;24.41
15544;BMP180;7873;52.230;12.856;2022-11-23T02:59:00;99527.63;;;24.42
15544;BMP180;7873;52.230;12.856;2022-11-23T03:01:28;99534.06;;;24.41
15544;BMP180;7873;52.230;12.856;2022-11-23T03:03:55;99536.75;;;24.41
15544;BMP180;7873;52.230;12.856;2022-11-23T03:06:22;99545.69;;;24.35
15544;BMP180;7873;52.230;12.856;2022-11-23T03:08:48;99549.19;;;24.36
15544;BMP180;7873;52.230;12.856;2022-11-23T03:11:15;99548.56;;;24.34
15544;BMP180;7873;52.230;12.856;2022-11-23T03:13:42;99547.97;;;24.32
15544;BMP180;7873;52.230;12.856;2022-11-23T03:16:09;99551.50;;;24.32
15544;BMP180;7873;52.230;12.856;2022-11-23T03:18:37;99552.31;;;24.33
15544;BMP180;7873;52.230;12.856;2022-11-23T03:21:05;99547.34;;;24.30
15544;BMP180;7873;52.230;12.856;2022-11-23T03:23:33;99555.66;;;24.28
15544;BMP180;7873;52.230;12.856;2022-11-23T03:26:00;99553.16;;;24.27
15544;BMP180;7873;52.230;12.856;2022-11-23T03:28:27;99555.03;;;24.26
15544;BMP180;7873;52.230;12.856;2022-11-23T03:30:54;99551.50;;;24.26
15544;BMP180;7873;52.230;12.856;2022-11-23T03:33:21;99543.88;;;24.23
15544;BMP180;7873;52.230;12.856;2022-11-23T03:35:49;99539.53;;;24.22
15544;BMP180;7873;52.230;12.856;2022-11-23T03:38:15;99547.59;;;24.22
15544;BMP180;7873;52.230;12.856;2022-11-23T03:40:43;99541.63;;;24.20
15544;BMP180;7873;52.230;12.856;2022-11-23T03:43:10;99547.00;;;24.20
15544;BMP180;7873;52.230;12.856;2022-11-23T03:45:37;99548.84;;;24.19
15544;BMP180;7873;52.230;12.856;2022-11-23T03:48:04;99548.22;;;24.17
15544;BMP180;7873;52.230;12.856;2022-11-23T03:50:31;99549.50;;;24.15
15544;BMP180;7873;52.230;12.856;2022-11-23T03:52:59;99541.63;;;24.13
15544;BMP180;7873;52.230;12.856;2022-11-23T03:55:25;99539.38;;;24.10
15544;BMP180;7873;52.230;12.856;2022-11-23T03:57:52;99538.34;;;24.11
15544;BMP180;7873;52.230;12.856;2022-11-23T04:00:19;99535.84;;;24.10
15544;BMP180;7873;52.230;12.856;2022-11-23T04:02:46;99539.19;;;24.05
15544;BMP180;7873;52.230;12.856;2022-11-23T04:05:13;99531.31;;;24.04
15544;BMP180;7873;52.230;12.856;2022-11-23T04:07:40;99547.03;;;24.00
15544;BMP180;7873;52.230;12.856;2022-11-23T04:10:08;99539.41;;;23.97
15544;BMP180;7873;52.230;12.856;2022-11-23T04:12:35;99537.38;;;23.93
15544;BMP180;7873;52.230;12.856;2022-11-23T04:15:02;99536.75;;;23.91
15544;BMP180;7873;52.230;12.856;2022-11-23T04:17:29;99529.50;;;23.91
15544;BMP180;7873;52.230;12.856;2022-11-23T04:19:55;99538.81;;;23.89
15544;BMP180;7873;52.230;12.856;2022-11-23T04:22:22;99536.53;;;23.92
15544;BMP180;7873;52.230;12.856;2022-11-23T04:24:49;99537.56;;;23.91
15544;BMP180;7873;52.230;12.856;2022-11-23T04:27:16;99534.06;;;23.91
15544;BMP180;7873;52.230;12.856;2022-11-23T04:29:43;99523.94;;;23.93
15544;BMP180;7873;52.230;12.856;2022-11-23T04:32:10;99529.06;;;23.94
15544;BMP180;7873;52.230;12.856;2022-11-23T04:34:37;99520.81;;;23.89
15544;BMP180;7873;52.230;12.856;2022-11-23T04:37:04;99526.19;;;23.96
15544;BMP180;7873;52.230;12.856;2022-11-23T04:39:30;99534.88;;;23.98
15544;BMP180;7873;52.230;12.856;2022-11-23T04:41:57;99536.28;;;24.00
15544;BMP180;7873;52.230;12.856;2022-11-23T04:44:25;99540.00;;;23.99
15544;BMP180;7873;52.230;12.856;2022-11-23T04:46:52;99536.28;;;24.00
15544;BMP180;7873;52.230;12.856;2022-11-23T04:49:18;99546.41;;;24.05
15544;BMP180;7873;52.230;12.856;2022-11-23T04:51:45;99542.91;;;24.04
15544;BMP180;7873;52.230;12.856;2022-11-23T04:54:11;99548.06;;;24.06
15544;BMP180;7873;52.230;12.856;2022-11-23T04:56:38;99554.72;;;24.03
15544;BMP180;7873;52.230;12.856;2022-11-23T04:59:05;99543.97;;;24.03
15544;BMP180;7873;52.230;12.856;2022-11-23T05:01:33;99541.25;;;24.03
15544;BMP180;7873;52.230;12.856;2022-11-23T05:03:59;99544.75;;;24.04
15544;BMP180;7873;52.230;12.856;2022-11-23T05:06:26;99547.69;;;24.02
15544;BMP180;7873;52.230;12.856;2022-11-23T05:08:53;99544.34;;;24.00
15544;BMP180;7873;52.230;12.856;2022-11-23T05:11:19;99546.66;;;23.97
15544;BMP180;7873;52.230;12.856;2022-11-23T05:13:46;99544.78;;;23.97
15544;BMP180;7873;52.230;12.856;2022-11-23T05:16:13;99546.03;;;23.95
15544;BMP180;7873;52.230;12.856;2022-11-23T05:18:41;99541.91;;;23.92
15544;BMP180;7873;52.230;12.856;2022-11-23T05:21:07;99551.63;;;23.87
15544;BMP180;7873;52.230;12.856;2022-11-23T05:23:34;99550.19;;;23.72
15544;BMP180;7873;52.230;12.856;2022-11-23T05:26:01;99544.84;;;23.59
15544;BMP180;7873;52.230;12.856;2022-11-23T05:28:27;99542.34;;;23.57
15544;BMP180;7873;52.230;12.856;2022-11-23T05:30:54;99542.78;;;23.48
15544;BMP180;7873;52.230;12.856;2022-11-23T05:33:21;99547.13;;;23.49
15544;BMP180;7873;52.230;12.856;2022-11-23T05:35:49;99551.25;;;23.45
15544;BMP180;7873;52.230;12.856;2022-11-23T05:38:16;99554.13;;;23.43
15544;BMP180;7873;52.230;12.856;2022-11-23T05:40:44;99556.03;;;23.49
15544;BMP180;7873;52.230;12.856;2022-11-23T05:43:11;99556.22;;;23.54
15544;BMP180;7873;52.230;12.856;2022-11-23T05:45:38;99543.19;;;23.58
15544;BMP180;7873;52.230;12.856;2022-11-23T05:48:05;99539.25;;;23.60
15544;BMP180;7873;52.230;12.856;2022-11-23T05:50:31;99543.16;;;23.64
15544;BMP180;7873;52.230;12.856;2022-11-23T05:52:59;99545.22;;;23.69
15544;BMP180;7873;52.230;12.856;2022-11-23T05:55:26;99547.72;;;23.70
15544;BMP180;7873;52.230;12.856;2022-11-23T05:57:53;99552.44;;;23.74
15544;BMP180;7873;52.230;12.856;2022-11-23T06:00:20;99548.72;;;23.75
15544;BMP180;7873;52.230;12.856;2022-11-23T06:02:47;99550.38;;;23.76
15544;BMP180;7873;52.230;12.856;2022-11-23T06:05:14;99549.34;;;23.77
15544;BMP180;7873;52.230;12.856;2022-11-23T06:07:41;99551.03;;;23.78
15544;BMP180;7873;52.230;12.856;2022-11-23T06:10:09;99553.06;;;23.76
15544;BMP180;7873;52.230;12.856;2022-11-23T06:12:37;99561.97;;;23.77
15544;BMP180;7873;52.230;12.856;2022-11-23T06:15:04;99559.47;;;23.75
15544;BMP180;7873;52.230;12.856;2022-11-23T06:17:31;99554.53;;;23.73
15544;BMP180;7873;52.230;12.856;2022-11-23T06:19:58;99564.47;;;23.72
15544;BMP180;7873;52.230;12.856;2022-11-23T06:22:24;99552.50;;;23.68
15544;BMP180;7873;52.230;12.856;2022-11-23T06:24:51;99562.59;;;23.66
15544;BMP180;7873;52.230;12.856;2022-11-23T06:27:19;99561.16;;;23.64
15544;BMP180;7873;52.230;12.856;2022-11-23T06:29:46;99563.25;;;23.62
15544;BMP180;7873;52.230;12.856;2022-11-23T06:32:13;99565.09;;;23.61
15544;BMP180;7873;52.230;12.856;2022-11-23T06:34:40;99567.16;;;23.59
15544;BMP180;7873;52.230;12.856;2022-11-23T06:37:07;99561.38;;;23.56
15544;BMP180;7873;52.230;12.856;2022-11-23T06:39:33;99567.78;;;23.55
15544;BMP180;7873;52.230;12.856;2022-11-23T06:42:00;99571.50;;;23.54
15544;BMP180;7873;52.230;12.856;2022-11-23T06:44:28;99569.03;;;23.52
15544;BMP180;7873;52.230;12.856;2022-11-23T06:46:55;99575.63;;;23.50
15544;BMP180;7873;52.230;12.856;2022-11-23T06:49:21;99578.13;;;23.51
15544;BMP180;7873;52.230;12.856;2022-11-23T06:51:50;99572.94;;;23.50
15544;BMP180;7873;52.230;12.856;2022-11-23T06:54:17;99576.66;;;23.49
15544;BMP180;7873;52.230;12.856;2022-11-23T06:56:44;99569.03;;;23.46
15544;BMP180;7873;52.230;12.856;2022-11-23T06:59:10;99572.56;;;23.46
15544;BMP180;7873;52.230;12.856;2022-11-23T07:01:39;99577.09;;;23.46
15544;BMP180;7873;52.230;12.856;2022-11-23T07:04:05;99571.72;;;23.46
15544;BMP180;7873;52.230;12.856;2022-11-23T07:06:32;99578.75;;;23.47
15544;BMP180;7873;52.230;12.856;2022-11-23T07:08:59;99573.16;;;23.48
15544;BMP180;7873;52.230;12.856;2022-11-23T07:11:27;99570.50;;;23.48
15544;BMP180;7873;52.230;12.856;2022-11-23T07:13:53;99576.66;;;23.49
15544;BMP180;7873;52.230;12.856;2022-11-23T07:16:20;99581.22;;;23.48
15544;BMP180;7873;52.230;12.856;2022-11-23T07:18:48;99583.06;;;23.48
15544;BMP180;7873;52.230;12.856;2022-11-23T07:21:15;99586.00;;;23.46
15544;BMP180;7873;52.230;12.856;2022-11-23T07:23:42;99596.72;;;23.46
15544;BMP180;7873;52.230;12.856;2022-11-23T07:26:09;99595.28;;;23.44
15544;BMP180;7873;52.230;12.856;2022-11-23T07:28:35;99602.50;;;23.43
15544;BMP180;7873;52.230;12.856;2022-11-23T07:31:02;99608.91;;;23.42
15544;BMP180;7873;52.230;12.856;2022-11-23T07:33:29;99608.28;;;23.40
15544;BMP180;7873;52.230;12.856;2022-11-23T07:35:59;99597.75;;;23.39
15544;BMP180;7873;52.230;12.856;2022-11-23T07:38:26;99606.00;;;23.37
15544;BMP180;7873;52.230;12.856;2022-11-23T07:40:52;99608.91;;;23.36
15544;BMP180;7873;52.230;12.856;2022-11-23T07:43:19;99611.81;;;23.34
15544;BMP180;7873;52.230;12.856;2022-11-23T07:45:46;99608.31;;;23.34
15544;BMP180;7873;52.230;12.856;2022-11-23T07:48:12;99619.03;;;23.34
15544;BMP180;7873;52.230;12.856;2022-11-23T07:50:40;99616.75;;;23.31
15544;BMP180;7873;52.230;12.856;2022-11-23T07:53:08;99625.44;;;23.33
15544;BMP180;7873;52.230;12.856;2022-11-23T07:55:35;99628.94;;;23.33
15544;BMP180;7873;52.230;12.856;2022-11-23T07:58:02;99629.97;;;23.32
15544;BMP180;7873;52.230;12.856;2022-11-23T08:00:30;99626.25;;;23.33
15544;BMP180;7873;52.230;12.856;2022-11-23T08:02:57;99627.91;;;23.34
15544;BMP180;7873;52.230;12.856;2022-11-23T08:05:24;99627.72;;;23.36
15544;BMP180;7873;52.230;12.856;2022-11-23T08:07:56;99628.53;;;23.36
15544;BMP180;7873;52.230;12.856;2022-11-23T08:10:25;99628.34;;;23.38
15544;BMP180;7873;52.230;12.856;2022-11-23T08:12:51;99628.34;;;23.38
15544;BMP180;7873;52.230;12.856;2022-11-23T08:15:18;99634.34;;;23.40
15544;BMP180;7873;52.230;12.856;2022-11-23T08:17:45;99631.44;;;23.41
15544;BMP180;7873;52.230;12.856;2022-11-23T08:20:12;99628.97;;;23.40
15544;BMP180;7873;52.230;12.856;2022-11-23T08:22:38;99628.13;;;23.39
15544;BMP180;7873;52.230;12.856;2022-11-23T08:25:06;99627.31;;;23.39
15544;BMP180;7873;52.230;12.856;2022-11-23T08:27:34;99631.66;;;23.40
15544;BMP180;7873;52.230;12.856;2022-11-23T08:30:01;99628.97;;;23.40
15544;BMP180;7873;52.230;12.856;2022-11-23T08:32:27;99628.13;;;23.39
15544;BMP180;7873;52.230;12.856;2022-11-23T08:34:54;99627.31;;;23.39
15544;BMP180;7873;52.230;12.856;2022-11-23T08:37:20;99629.38;;;23.37
15544;BMP180;7873;52.230;12.856;2022-11-23T08:39:47;99627.72;;;23.36
15544;BMP180;7873;52.230;12.856;2022-11-23T08:42:14;99629.78;;;23.34
15544;BMP180;7873;52.230;12.856;2022-11-23T08:44:42;99629.78;;;23.34
15544;BMP180;7873;52.230;12.856;2022-11-23T08:47:08;99629.97;;;23.32
15544;BMP180;7873;52.230;12.856;2022-11-23T08:49:35;99625.03;;;23.29
15544;BMP180;7873;52.230;12.856;2022-11-23T08:52:02;99631.44;;;23.28
15544;BMP180;7873;52.230;12.856;2022-11-23T08:54:30;99635.16;;;23.27
15544;BMP180;7873;52.230;12.856;2022-11-23T08:56:56;99635.34;;;23.26
15544;BMP180;7873;52.230;12.856;2022-11-23T08:59:23;99645.06;;;23.27
15544;BMP180;7873;52.230;12.856;2022-11-23T09:01:51;99644.25;;;23.26
15544;BMP180;7873;52.230;12.856;2022-11-23T09:04:18;99643.22;;;23.27
15544;BMP180;7873;52.230;12.856;2022-11-23T09:06:45;99645.06;;;23.27
15544;BMP180;7873;52.230;12.856;2022-11-23T09:09:11;99648.56;;;23.27
15544;BMP180;7873;52.230;12.856;2022-11-23T09:11:38;99645.06;;;23.27
15544;BMP180;7873;52.230;12.856;2022-11-23T09:14:05;99637.00;;;23.27
15544;BMP180;7873;52.230;12.856;2022-11-23T09:16:31;99645.66;;;23.29
15544;BMP180;7873;52.230;12.856;2022-11-23T09:18:59;99638.66;;;23.28
15544;BMP180;7873;52.230;12.856;2022-11-23T09:21:26;99641.34;;;23.28
15544;BMP180;7873;52.230;12.856;2022-11-23T09:23:57;99638.66;;;23.28
15544;BMP180;7873;52.230;12.856;2022-11-23T09:26:24;99639.50;;;23.28
15544;BMP180;7873;52.230;12.856;2022-11-23T09:28:51;99638.66;;;23.28
15544;BMP180;7873;52.230;12.856;2022-11-23T09:31:18;99629.78;;;23.27
15544;BMP180;7873;52.230;12.856;2022-11-23T09:33:44;99636.19;;;23.26
15544;BMP180;7873;52.230;12.856;2022-11-23T09:36:12;99635.34;;;23.26
15544;BMP180;7873;52.230;12.856;2022-11-23T09:38:39;99639.06;;;23.25
15544;BMP180;7873;52.230;12.856;2022-11-23T09:41:22;99631.84;;;23.25
15544;BMP180;7873;52.230;12.856;2022-11-23T09:43:56;99639.28;;;23.23
15544;BMP180;7873;52.230;12.856;2022-11-23T09:46:53;99652.09;;;23.21
15544;BMP180;7873;52.230;12.856;2022-11-23T09:49:26;99638.84;;;23.20
15544;BMP180;7873;52.230;12.856;2022-11-23T09:51:58;99655.16;;;23.18
15544;BMP180;7873;52.230;12.856;2022-11-23T09:54:29;99644.41;;;23.18
15544;BMP180;7873;52.230;12.856;2022-11-23T09:56:57;99650.81;;;23.17
15544;BMP180;7873;52.230;12.856;2022-11-23T09:59:35;99648.13;;;23.17
15544;BMP180;7873;52.230;12.856;2022-11-23T10:02:04;99654.53;;;23.16
15544;BMP180;7873;52.230;12.856;2022-11-23T10:04:33;99647.31;;;23.17
15544;BMP180;7873;52.230;12.856;2022-11-23T10:07:17;99643.78;;;23.16
15544;BMP180;7873;52.230;12.856;2022-11-23T10:09:56;99643.78;;;23.16
15544;BMP180;7873;52.230;12.856;2022-11-23T10:12:34;99645.44;;;23.17
15544;BMP180;7873;52.230;12.856;2022-11-23T10:15:10;99642.75;;;23.17
15544;BMP180;7873;52.230;12.856;2022-11-23T10:17:51;99640.06;;;23.17
15544;BMP180;7873;52.230;12.856;2022-11-23T10:20:36;99642.75;;;23.17
15544;BMP180;7873;52.230;12.856;2022-11-23T10:23:12;99635.53;;;23.18
15544;BMP180;7873;52.230;12.856;2022-11-23T10:25:46;99637.38;;;23.17
15544;BMP180;7873;52.230;12.856;2022-11-23T10:28:16;99620.47;;;23.17
15544;BMP180;7873;52.230;12.856;2022-11-23T10:30:44;99626.66;;;23.17
15544;BMP180;7873;52.230;12.856;2022-11-23T10:33:20;99627.50;;;23.18
15544;BMP180;7873;52.230;12.856;2022-11-23T10:35:49;99627.50;;;23.18
15544;BMP180;7873;52.230;12.856;2022-11-23T10:38:19;99621.50;;;23.16
15544;BMP180;7873;52.230;12.856;2022-11-23T10:40:55;99621.50;;;23.16
15544;BMP180;7873;52.230;12.856;2022-11-23T10:43:25;99622.31;;;23.16
15544;BMP180;7873;52.230;12.856;2022-11-23T10:46:23;99624.38;;;23.14
15544;BMP180;7873;52.230;12.856;2022-11-23T10:48:51;99622.72;;;23.13
15544;BMP180;7873;52.230;12.856;2022-11-23T10:51:24;99627.28;;;23.13
15544;BMP180;7873;52.230;12.856;2022-11-23T10:53:57;99629.34;;;23.11
15544;BMP180;7873;52.230;12.856;2022-11-23T10:56:25;99630.34;;;23.10
15544;BMP180;7873;52.230;12.856;2022-11-23T10:58:52;99626.81;;;23.09
15544;BMP180;7873;52.230;12.856;2022-11-23T11:01:20;99631.34;;;23.09
15544;BMP180;7873;52.230;12.856;2022-11-23T11:03:49;99627.00;;;23.08
15544;BMP180;7873;52.230;12.856;2022-11-23T11:06:21;99623.50;;;23.07
15544;BMP180;7873;52.230;12.856;2022-11-23T11:08:50;99624.31;;;23.08
15544;BMP180;7873;52.230;12.856;2022-11-23T11:11:24;99620.81;;;23.07
15544;BMP180;7873;52.230;12.856;2022-11-23T11:14:00;99621.63;;;23.08
15544;BMP180;7873;52.230;12.856;2022-11-23T11:16:29;99625.97;;;23.09
15544;BMP180;7873;52.230;12.856;2022-11-23T11:18:56;99611.75;;;23.08
15544;BMP180;7873;52.230;12.856;2022-11-23T11:21:30;99621.28;;;23.11
15544;BMP180;7873;52.230;12.856;2022-11-23T11:23:59;99623.09;;;23.10
15544;BMP180;7873;52.230;12.856;2022-11-23T11:26:29;99610.56;;;23.11
15544;BMP180;7873;52.230;12.856;2022-11-23T11:28:58;99606.00;;;23.11
15544;BMP180;7873;52.230;12.856;2022-11-23T11:31:47;99612.81;;;23.14
15544;BMP180;7873;52.230;12.856;2022-11-23T11:34:22;99611.97;;;23.13
15544;BMP180;7873;52.230;12.856;2022-11-23T11:36:55;99615.50;;;23.14
15544;BMP180;7873;52.230;12.856;2022-11-23T11:39:28;99614.66;;;23.13
15544;BMP180;7873;52.230;12.856;2022-11-23T11:42:02;99606.41;;;23.15
15544;BMP180;7873;52.230;12.856;2022-11-23T11:44:32;99614.47;;;23.15
15544;BMP180;7873;52.230;12.856;2022-11-23T11:47:11;99615.28;;;23.15
15544;BMP180;7873;52.230;12.856;2022-11-23T11:49:44;99615.50;;;23.14
15544;BMP180;7873;52.230;12.856;2022-11-23T11:52:16;99611.97;;;23.13
15544;BMP180;7873;52.230;12.856;2022-11-23T11:54:50;99612.81;;;23.14
15544;BMP180;7873;52.230;12.856;2022-11-23T11:57:21;99620.88;;;23.14
15544;BMP180;7873;52.230;12.856;2022-11-23T11:59:52;99617.56;;;23.12
15544;BMP180;7873;52.230;12.856;2022-11-23T12:02:23;99614.22;;;23.10
15544;BMP180;7873;52.230;12.856;2022-11-23T12:04:59;99612.56;;;23.09
15544;BMP180;7873;52.230;12.856;2022-11-23T12:07:31;99616.91;;;23.10
15544;BMP180;7873;52.230;12.856;2022-11-23T12:10:08;99614.22;;;23.10
15544;BMP180;7873;52.230;12.856;2022-11-23T12:12:37;99617.72;;;23.10
15544;BMP180;7873;52.230;12.856;2022-11-23T12:15:08;99623.09;;;23.10
15544;BMP180;7873;52.230;12.856;2022-11-23T12:17:56;99615.03;;;23.10
15544;BMP180;7873;52.230;12.856;2022-11-23T12:20:29;99621.44;;;23.09
15544;BMP180;7873;52.230;12.856;2022-11-23T12:23:11;99620.41;;;23.10
15544;BMP180;7873;52.230;12.856;2022-11-23T12:25:44;99624.78;;;23.11
15544;BMP180;7873;52.230;12.856;2022-11-23T12:28:29;99621.06;;;23.12
15544;BMP180;7873;52.230;12.856;2022-11-23T12:31:07;99620.25;;;23.12
15544;BMP180;7873;52.230;12.856;2022-11-23T12:33:45;99621.91;;;23.13
15544;BMP180;7873;52.230;12.856;2022-11-23T12:36:31;99618.38;;;23.12
15544;BMP180;7873;52.230;12.856;2022-11-23T12:39:09;99616.53;;;23.13
15544;BMP180;7873;52.230;12.856;2022-11-23T12:41:44;99613.00;;;23.12
15544;BMP180;7873;52.230;12.856;2022-11-23T12:44:44;99621.28;;;23.11
15544;BMP180;7873;52.230;12.856;2022-11-23T12:47:21;99619.59;;;23.10
15544;BMP180;7873;52.230;12.856;2022-11-23T12:49:54;99615.22;;;23.09
15544;BMP180;7873;52.230;12.856;2022-11-23T12:52:33;99617.09;;;23.08
15544;BMP180;7873;52.230;12.856;2022-11-23T12:55:14;99609.25;;;23.07
15544;BMP180;7873;52.230;12.856;2022-11-23T12:57:48;99615.66;;;23.06
15544;BMP180;7873;52.230;12.856;2022-11-23T13:00:19;99616.91;;;23.03
15544;BMP180;7873;52.230;12.856;2022-11-23T13:03:18;99615.88;;;23.04
15544;BMP180;7873;52.230;12.856;2022-11-23T13:06:19;99621.25;;;23.04
15544;BMP180;7873;52.230;12.856;2022-11-23T13:09:19;99624.53;;;23.06
15544;BMP180;7873;52.230;12.856;2022-11-23T13:12:10;99611.94;;;23.07
15544;BMP180;7873;52.230;12.856;2022-11-23T13:14:46;99611.56;;;23.10
15544;BMP180;7873;52.230;12.856;2022-11-23T13:17:26;99611.97;;;23.13
15544;BMP180;7873;52.230;12.856;2022-11-23T13:20:14;99613.63;;;23.14
15544;BMP180;7873;52.230;12.856;2022-11-23T13:22:44;99610.94;;;23.14
15544;BMP180;7873;52.230;12.856;2022-11-23T13:25:23;99615.09;;;23.17
15544;BMP180;7873;52.230;12.856;2022-11-23T13:27:55;99614.06;;;23.18
15544;BMP180;7873;52.230;12.856;2022-11-23T13:30:28;99615.72;;;23.19
15544;BMP180;7873;52.230;12.856;2022-11-23T13:32:59;99614.69;;;23.20
15544;BMP180;7873;52.230;12.856;2022-11-23T13:35:52;99616.53;;;23.19
15544;BMP180;7873;52.230;12.856;2022-11-23T13:38:27;99609.50;;;23.18
15544;BMP180;7873;52.230;12.856;2022-11-23T13:41:01;99606.81;;;23.18
15544;BMP180;7873;52.230;12.856;2022-11-23T13:43:29;99607.84;;;23.17
15544;BMP180;7873;52.230;12.856;2022-11-23T13:46:18;99598.13;;;23.16
15544;BMP180;7873;52.230;12.856;2022-11-23T13:48:48;99595.44;;;23.16
15544;BMP180;7873;52.230;12.856;2022-11-23T13:51:22;99595.88;;;23.13
15544;BMP180;7873;52.230;12.856;2022-11-23T13:53:52;99604.94;;;23.12
15544;BMP180;7873;52.230;12.856;2022-11-23T13:56:31;99602.28;;;23.12
15544;BMP180;7873;52.230;12.856;2022-11-23T13:59:25;99601.63;;;23.10
15544;BMP180;7873;52.230;12.856;2022-11-23T14:02:27;99597.47;;;23.08
15544;BMP180;7873;52.230;12.856;2022-11-23T14:07:55;99610.28;;;23.06
15544;BMP180;7873;52.230;12.856;2022-11-23T14:10:28;99611.94;;;23.07
15544;BMP180;7873;52.230;12.856;2022-11-23T14:12:59;99617.28;;;23.07
15544;BMP180;7873;52.230;12.856;2022-11-23T14:15:29;99622.66;;;23.07
15544;BMP180;7873;52.230;12.856;2022-11-23T14:18:12;99617.28;;;23.07
15544;BMP180;7873;52.230;12.856;2022-11-23T14:21:06;99611.94;;;23.07
15544;BMP180;7873;52.230;12.856;2022-11-23T14:23:56;99617.28;;;23.07
15544;BMP180;7873;52.230;12.856;2022-11-23T14:26:36;99616.50;;;23.06
15544;BMP180;7873;52.230;12.856;2022-11-23T14:29:25;99618.94;;;23.08